createdAt,value
2023-01-17T00:02:03.980Z,1.42
2023-01-17T00:04:55.505Z,1.45
2023-01-17T00:07:42.477Z,1.47
2023-01-17T00:10:18.419Z,1.44
2023-01-17T00:12:52.718Z,1.51
2023-01-17T00:15:20.496Z,1.56
2023-01-17T00:17:47.937Z,1.63
2023-01-17T00:20:34.657Z,1.74
2023-01-17T00:23:20.102Z,1.80
2023-01-17T00:26:04.767Z,1.84
2023-01-17T00:28:37.329Z,1.91
2023-01-17T00:31:05.189Z,1.98
2023-01-17T00:33:31.643Z,1.94
2023-01-17T00:35:59.499Z,2.04
2023-01-17T00:38:30.907Z,2.01
2023-01-17T00:41:12.439Z,2.03
2023-01-17T00:43:58.112Z,2.02
2023-01-17T00:46:42.935Z,1.88
2023-01-17T00:49:28.180Z,1.86
2023-01-17T00:52:13.496Z,1.92
2023-01-17T00:54:58.326Z,1.81
2023-01-17T00:57:43.322Z,1.85
2023-01-17T01:00:29.346Z,1.89
2023-01-17T01:03:14.805Z,1.89
2023-01-17T01:05:59.518Z,1.85
2023-01-17T01:08:46.878Z,1.95
2023-01-17T01:11:35.477Z,1.92
2023-01-17T01:14:21.491Z,1.97
2023-01-17T01:17:06.951Z,2.01
2023-01-17T01:19:52.347Z,2.04
2023-01-17T01:22:38.216Z,2.07
2023-01-17T01:25:23.684Z,2.02
2023-01-17T01:28:08.579Z,1.90
2023-01-17T01:30:54.032Z,2.03
2023-01-17T01:33:20.564Z,1.87
2023-01-17T01:35:51.889Z,2.09
2023-01-17T01:38:20.833Z,2.04
2023-01-17T01:40:56.649Z,2.05
2023-01-17T01:43:48.904Z,2.09
2023-01-17T01:46:25.191Z,2.12
2023-01-17T01:48:56.421Z,2.06
2023-01-17T01:51:27.989Z,2.12
2023-01-17T01:54:01.248Z,2.09
2023-01-17T01:56:29.469Z,2.13
2023-01-17T01:58:58.449Z,2.11
2023-01-17T02:01:25.006Z,2.13
2023-01-17T02:03:52.143Z,2.09
2023-01-17T02:06:37.891Z,2.04
2023-01-17T02:09:08.675Z,2.04
2023-01-17T02:11:38.456Z,2.06
2023-01-17T02:14:04.974Z,2.07
2023-01-17T02:16:50.135Z,2.06
2023-01-17T02:19:43.485Z,2.03
2023-01-17T02:22:27.366Z,2.05
2023-01-17T02:25:12.247Z,2.02
2023-01-17T02:27:44.578Z,1.99
2023-01-17T02:30:17.822Z,1.99
2023-01-17T02:32:47.626Z,1.99
2023-01-17T02:35:35.225Z,1.88
2023-01-17T02:38:23.182Z,1.85
2023-01-17T02:40:55.615Z,1.86
2023-01-17T02:43:24.676Z,1.83
2023-01-17T02:45:51.243Z,1.76
2023-01-17T02:48:22.596Z,1.76
2023-01-17T02:50:58.147Z,1.72
2023-01-17T02:53:30.470Z,1.72
2023-01-17T02:56:08.972Z,1.66
2023-01-17T02:59:08.008Z,1.67
2023-01-17T03:01:43.447Z,1.57
2023-01-17T03:04:22.126Z,1.59
2023-01-17T03:06:56.755Z,1.61
2023-01-17T03:09:25.437Z,1.58
2023-01-17T03:11:52.353Z,1.51
2023-01-17T03:14:18.957Z,1.64
2023-01-17T03:16:45.842Z,1.64
2023-01-17T03:19:14.699Z,1.69
2023-01-17T03:21:41.169Z,1.71
2023-01-17T03:24:08.428Z,1.60
2023-01-17T03:26:34.928Z,1.65
2023-01-17T03:29:01.984Z,1.71
2023-01-17T03:31:28.466Z,1.70
2023-01-17T03:33:54.912Z,1.66
2023-01-17T03:36:21.431Z,1.64
2023-01-17T03:38:47.877Z,1.60
2023-01-17T03:41:14.321Z,1.60
2023-01-17T03:43:40.812Z,1.50
2023-01-17T03:46:17.998Z,1.54
2023-01-17T03:48:44.491Z,1.50
2023-01-17T03:51:11.012Z,1.39
2023-01-17T03:53:37.456Z,1.38
2023-01-17T03:56:03.991Z,1.45
2023-01-17T03:58:30.460Z,1.40
2023-01-17T04:00:57.013Z,1.40
2023-01-17T04:03:23.595Z,1.42
2023-01-17T04:05:50.061Z,1.38
2023-01-17T04:08:16.885Z,1.40
2023-01-17T04:10:43.368Z,1.38
2023-01-17T04:13:09.840Z,1.44
2023-01-17T04:15:36.443Z,1.37
2023-01-17T04:18:04.798Z,1.43
2023-01-17T04:20:35.082Z,1.41
2023-01-17T04:23:01.932Z,1.29
2023-01-17T04:25:30.880Z,1.32
2023-01-17T04:27:59.376Z,1.23
2023-01-17T04:30:27.113Z,1.20
2023-01-17T04:32:53.928Z,1.13
2023-01-17T04:35:20.456Z,1.17
2023-01-17T04:37:47.001Z,1.13
2023-01-17T04:40:13.691Z,1.08
2023-01-17T04:42:40.517Z,1.15
2023-01-17T04:45:07.609Z,1.13
2023-01-17T04:47:34.500Z,1.18
2023-01-17T04:50:00.992Z,1.21
2023-01-17T04:52:27.403Z,1.24
2023-01-17T04:54:53.922Z,1.30
2023-01-17T04:57:20.637Z,1.30
2023-01-17T04:59:47.236Z,1.26
2023-01-17T05:02:14.828Z,1.08
2023-01-17T05:04:41.318Z,1.22
2023-01-17T05:07:07.827Z,1.19
2023-01-17T05:09:34.340Z,1.16
2023-01-17T05:12:00.869Z,1.07
2023-01-17T05:14:27.418Z,1.03
2023-01-17T05:16:55.284Z,1.05
2023-01-17T05:19:22.715Z,0.99
2023-01-17T05:21:49.258Z,0.96
2023-01-17T05:24:16.200Z,0.95
2023-01-17T05:26:43.175Z,0.98
2023-01-17T05:29:10.648Z,0.95
2023-01-17T05:31:37.832Z,0.83
2023-01-17T05:34:04.636Z,0.76
2023-01-17T05:36:31.203Z,0.76
2023-01-17T05:38:57.751Z,0.80
2023-01-17T05:41:24.219Z,0.79
2023-01-17T05:43:50.700Z,0.74
2023-01-17T05:46:18.058Z,0.68
2023-01-17T05:48:44.676Z,0.57
2023-01-17T05:51:11.223Z,0.59
2023-01-17T05:53:50.038Z,0.58
2023-01-17T05:56:16.493Z,0.52
2023-01-17T05:58:42.986Z,0.49
2023-01-17T06:01:09.506Z,0.52
2023-01-17T06:03:35.950Z,0.48
2023-01-17T06:06:02.532Z,0.48
2023-01-17T06:08:29.017Z,0.45
2023-01-17T06:10:58.172Z,0.42
2023-01-17T06:13:24.930Z,0.42
2023-01-17T06:15:51.433Z,0.39
2023-01-17T06:18:18.516Z,0.31
2023-01-17T06:20:45.160Z,0.33
2023-01-17T06:23:14.043Z,0.35
2023-01-17T06:25:44.762Z,0.33
2023-01-17T06:28:12.831Z,0.32
2023-01-17T06:30:39.530Z,0.27
2023-01-17T06:33:06.229Z,0.30
2023-01-17T06:35:33.519Z,0.29
2023-01-17T06:38:00.561Z,0.23
2023-01-17T06:40:28.668Z,0.24
2023-01-17T06:43:02.950Z,0.21
2023-01-17T06:45:30.738Z,0.22
2023-01-17T06:47:59.198Z,0.20
2023-01-17T06:50:26.007Z,0.17
2023-01-17T06:53:00.560Z,0.17
2023-01-17T06:55:31.311Z,0.19
2023-01-17T06:57:59.520Z,0.17
2023-01-17T07:00:27.512Z,0.11
2023-01-17T07:02:54.506Z,0.10
2023-01-17T07:05:21.735Z,0.08
2023-01-17T07:07:48.375Z,0.13
2023-01-17T07:10:15.832Z,0.10
2023-01-17T07:12:42.531Z,0.10
2023-01-17T07:15:09.731Z,0.10
2023-01-17T07:17:36.342Z,0.10
2023-01-17T07:20:03.214Z,0.10
2023-01-17T07:22:30.024Z,0.12
2023-01-17T07:24:58.651Z,0.12
2023-01-17T07:27:27.805Z,0.12
2023-01-17T07:29:54.457Z,0.10
2023-01-17T07:32:21.054Z,0.11
2023-01-17T07:34:47.666Z,0.12
2023-01-17T07:37:15.295Z,0.11
2023-01-17T07:39:42.008Z,0.14
2023-01-17T07:42:09.153Z,0.13
2023-01-17T07:44:35.853Z,0.15
2023-01-17T07:47:02.509Z,0.18
2023-01-17T07:49:28.985Z,0.12
2023-01-17T07:51:55.559Z,0.19
2023-01-17T07:54:22.104Z,0.18
2023-01-17T07:56:48.984Z,0.18
2023-01-17T07:59:15.455Z,0.19
2023-01-17T08:01:42.007Z,0.19
2023-01-17T08:04:09.331Z,0.19
2023-01-17T08:06:38.936Z,0.19
2023-01-17T08:09:05.474Z,0.17
2023-01-17T08:11:31.898Z,0.16
2023-01-17T08:14:00.122Z,0.19
2023-01-17T08:16:28.761Z,0.17
2023-01-17T08:18:55.937Z,0.20
2023-01-17T08:21:23.350Z,0.20
2023-01-17T08:23:52.966Z,0.06
2023-01-17T08:26:22.441Z,0.08
2023-01-17T08:28:57.866Z,0.18
2023-01-17T08:31:24.733Z,0.15
2023-01-17T08:33:51.308Z,0.22
2023-01-17T08:36:18.074Z,0.21
2023-01-17T08:38:44.581Z,0.15
2023-01-17T08:41:11.254Z,0.20
2023-01-17T08:43:37.710Z,0.19
2023-01-17T08:46:06.277Z,0.08
2023-01-17T08:48:32.964Z,0.10
2023-01-17T08:51:03.135Z,0.17
2023-01-17T08:53:29.809Z,0.14
2023-01-17T08:56:01.379Z,0.12
2023-01-17T08:58:30.851Z,0.12
2023-01-17T09:01:06.030Z,0.12
2023-01-17T09:03:34.100Z,0.06
2023-01-17T09:06:12.326Z,0.09
2023-01-17T09:08:39.515Z,-0.01
2023-01-17T09:11:06.928Z,0.09
2023-01-17T09:13:33.619Z,0.11
2023-01-17T09:16:00.531Z,0.12
2023-01-17T09:18:28.009Z,0.16
2023-01-17T09:20:55.710Z,0.17
2023-01-17T09:23:22.823Z,0.20
2023-01-17T09:25:57.725Z,0.28
2023-01-17T09:28:25.801Z,0.32
2023-01-17T09:30:52.931Z,0.36
2023-01-17T09:33:19.943Z,0.38
2023-01-17T09:35:47.121Z,0.36
2023-01-17T09:38:13.774Z,0.48
2023-01-17T09:40:47.536Z,0.53
2023-01-17T09:43:46.708Z,0.59
2023-01-17T09:46:22.756Z,0.55
2023-01-17T09:49:23.614Z,0.71
2023-01-17T09:51:50.121Z,0.54
2023-01-17T09:54:23.165Z,0.76
2023-01-17T09:57:13.278Z,0.85
2023-01-17T10:00:05.788Z,0.88
2023-01-17T10:03:03.747Z,0.95
2023-01-17T10:05:54.655Z,1.07
2023-01-17T10:08:21.143Z,1.12
2023-01-17T10:11:02.847Z,1.18
2023-01-17T10:13:29.228Z,1.21
2023-01-17T10:16:08.370Z,1.26
2023-01-17T10:18:58.708Z,1.30
2023-01-17T10:21:59.088Z,1.36
2023-01-17T10:24:41.495Z,1.41
2023-01-17T10:27:25.891Z,1.45
2023-01-17T10:29:52.404Z,1.45
2023-01-17T10:32:22.326Z,1.43
2023-01-17T10:34:51.002Z,1.46
2023-01-17T10:37:26.091Z,1.59
2023-01-17T10:39:56.125Z,1.61
2023-01-17T10:42:44.297Z,1.67
2023-01-17T10:45:28.965Z,1.67
2023-01-17T10:48:09.230Z,1.70
2023-01-17T10:51:05.766Z,1.72
2023-01-17T10:53:55.191Z,1.68
2023-01-17T10:56:26.879Z,1.72
2023-01-17T10:59:26.235Z,1.75
2023-01-17T11:01:52.940Z,1.71
2023-01-17T11:04:23.613Z,1.80
2023-01-17T11:07:21.029Z,1.75
2023-01-17T11:09:58.860Z,1.82
2023-01-17T11:12:47.104Z,1.82
2023-01-17T11:15:13.510Z,2.00
2023-01-17T11:17:53.045Z,1.99
2023-01-17T11:20:23.591Z,2.09
2023-01-17T11:23:08.934Z,2.09
2023-01-17T11:25:35.697Z,2.05
2023-01-17T11:28:17.822Z,2.12
2023-01-17T11:30:56.368Z,2.18
2023-01-17T11:33:48.211Z,2.22
2023-01-17T11:36:24.681Z,2.33
2023-01-17T11:39:05.313Z,2.45
2023-01-17T11:41:34.817Z,2.56
2023-01-17T11:44:03.098Z,2.65
2023-01-17T11:46:29.828Z,2.71
2023-01-17T11:48:59.681Z,2.93
2023-01-17T11:51:32.369Z,2.92
2023-01-17T11:54:26.948Z,3.20
2023-01-17T11:57:00.505Z,3.44
2023-01-17T11:59:27.024Z,3.66
2023-01-17T12:02:15.625Z,3.87
2023-01-17T12:04:59.923Z,4.33
2023-01-17T12:07:38.009Z,4.51
2023-01-17T12:10:10.273Z,4.81
2023-01-17T12:13:17.670Z,4.90
2023-01-17T12:16:33.206Z,5.34
2023-01-17T12:19:34.042Z,5.75
2023-01-17T12:22:19.372Z,5.94
2023-01-17T12:25:19.203Z,6.08
2023-01-17T12:27:55.580Z,6.15
2023-01-17T12:30:49.637Z,6.38
2023-01-17T12:33:24.026Z,6.52
2023-01-17T12:35:57.585Z,6.62
2023-01-17T12:38:34.710Z,6.61
2023-01-17T12:41:18.437Z,6.93
2023-01-17T12:43:45.823Z,7.30
2023-01-17T12:46:49.427Z,7.67
2023-01-17T12:49:34.394Z,7.88
2023-01-17T12:52:42.975Z,7.98
2023-01-17T12:55:22.268Z,7.64
2023-01-17T12:57:57.143Z,6.71
2023-01-17T13:00:29.709Z,6.50
2023-01-17T13:03:11.735Z,6.28
2023-01-17T13:05:41.902Z,6.16
2023-01-17T13:08:18.089Z,5.91
2023-01-17T13:11:30.754Z,5.75
2023-01-17T13:13:57.973Z,5.67
2023-01-17T13:16:40.065Z,5.54
2023-01-17T13:19:27.966Z,5.35
2023-01-17T13:21:56.418Z,5.37
2023-01-17T13:24:31.584Z,5.42
2023-01-17T13:27:25.576Z,5.57
2023-01-17T13:30:15.353Z,5.48
2023-01-17T13:32:52.465Z,5.51
2023-01-17T13:35:39.917Z,5.48
2023-01-17T13:38:21.384Z,5.35
2023-01-17T13:41:34.686Z,5.03
2023-01-17T13:44:21.419Z,4.87
2023-01-17T13:47:07.289Z,4.93
2023-01-17T13:49:42.917Z,4.98
2023-01-17T13:52:18.450Z,5.00
2023-01-17T13:54:56.432Z,5.16
2023-01-17T13:57:28.556Z,5.30
2023-01-17T13:59:57.947Z,5.38
2023-01-17T14:02:33.609Z,5.51
2023-01-17T14:05:18.059Z,5.45
2023-01-17T14:08:05.015Z,5.69
2023-01-17T14:10:47.552Z,5.97
2023-01-17T14:13:37.047Z,6.03
2023-01-17T14:16:07.600Z,5.99
2023-01-17T14:18:40.768Z,5.91
2023-01-17T14:21:13.258Z,6.01
2023-01-17T14:23:58.684Z,6.00
2023-01-17T14:26:34.142Z,6.05
2023-01-17T14:29:39.504Z,6.18
2023-01-17T14:32:10.617Z,6.11
2023-01-17T14:34:37.449Z,5.86
2023-01-17T14:37:15.913Z,5.62
2023-01-17T14:39:48.662Z,5.43
2023-01-17T14:42:18.651Z,5.25
2023-01-17T14:44:50.813Z,5.04
2023-01-17T14:47:17.842Z,4.94
2023-01-17T14:49:45.057Z,4.94
2023-01-17T14:52:16.876Z,4.87
2023-01-17T14:54:51.878Z,4.94
2023-01-17T14:57:27.554Z,4.65
2023-01-17T15:00:19.109Z,4.52
2023-01-17T15:02:48.097Z,4.48
2023-01-17T15:05:16.690Z,4.42
2023-01-17T15:07:45.856Z,4.40
2023-01-17T15:10:18.708Z,4.37
2023-01-17T15:12:48.188Z,4.32
2023-01-17T15:15:44.339Z,4.23
2023-01-17T15:18:13.559Z,4.17
2023-01-17T15:20:43.555Z,4.07
2023-01-17T15:23:18.998Z,4.03
2023-01-17T15:25:48.597Z,3.98
2023-01-17T15:28:15.581Z,3.90
2023-01-17T15:31:16.881Z,3.86
2023-01-17T15:33:49.439Z,3.81
2023-01-17T15:36:32.418Z,3.72
2023-01-17T15:39:02.548Z,3.66
2023-01-17T15:41:37.690Z,3.57
2023-01-17T15:44:07.007Z,3.50
2023-01-17T15:46:42.564Z,3.29
2023-01-17T15:49:21.607Z,3.26
2023-01-17T15:51:54.241Z,3.17
2023-01-17T15:54:44.380Z,3.06
2023-01-17T15:57:25.122Z,3.03
2023-01-17T15:59:58.145Z,3.00
2023-01-17T16:02:28.466Z,2.94
2023-01-17T16:04:55.179Z,2.73
2023-01-17T16:07:28.652Z,2.78
2023-01-17T16:10:05.157Z,2.66
2023-01-17T16:12:31.806Z,2.59
2023-01-17T16:15:11.225Z,2.34
2023-01-17T16:17:40.543Z,2.30
2023-01-17T16:20:16.235Z,2.32
2023-01-17T16:22:45.958Z,2.30
2023-01-17T16:25:15.102Z,2.28
2023-01-17T16:27:43.195Z,2.14
2023-01-17T16:30:15.219Z,2.11
2023-01-17T16:32:48.917Z,2.00
2023-01-17T16:35:22.966Z,1.74
2023-01-17T16:37:55.043Z,1.86
2023-01-17T16:40:27.269Z,1.85
2023-01-17T16:42:55.767Z,1.73
2023-01-17T16:45:24.884Z,1.77
2023-01-17T16:47:53.281Z,1.71
2023-01-17T16:50:22.971Z,1.63
2023-01-17T16:52:51.079Z,1.46
2023-01-17T16:55:22.068Z,1.45
2023-01-17T16:57:49.575Z,1.30
2023-01-17T17:00:16.750Z,1.17
2023-01-17T17:02:43.429Z,0.97
2023-01-17T17:05:10.670Z,1.02
2023-01-17T17:07:42.927Z,0.90
2023-01-17T17:10:10.828Z,0.93
2023-01-17T17:12:37.297Z,0.91
2023-01-17T17:15:04.445Z,0.90
2023-01-17T17:17:35.851Z,0.95
2023-01-17T17:20:02.435Z,0.94
2023-01-17T17:22:28.982Z,0.84
2023-01-17T17:24:55.427Z,0.85
2023-01-17T17:27:26.285Z,0.79
2023-01-17T17:29:53.849Z,0.73
2023-01-17T17:32:20.970Z,0.65
2023-01-17T17:34:47.731Z,0.65
2023-01-17T17:37:16.052Z,0.66
2023-01-17T17:39:42.789Z,0.65
2023-01-17T17:42:09.342Z,0.63
2023-01-17T17:44:35.832Z,0.59
2023-01-17T17:47:02.622Z,0.56
2023-01-17T17:49:29.133Z,0.48
2023-01-17T17:51:55.621Z,0.49
2023-01-17T17:54:22.283Z,0.42
2023-01-17T17:56:49.039Z,0.24
2023-01-17T17:59:18.435Z,0.36
2023-01-17T18:01:46.268Z,0.35
2023-01-17T18:04:13.021Z,0.30
2023-01-17T18:06:40.290Z,0.27
2023-01-17T18:09:08.876Z,0.16
2023-01-17T18:11:36.929Z,0.13
2023-01-17T18:14:06.062Z,0.10
2023-01-17T18:16:41.686Z,-0.15
2023-01-17T18:19:13.519Z,0.03
2023-01-17T18:21:40.636Z,-0.01
2023-01-17T18:24:10.302Z,-0.02
2023-01-17T18:26:39.372Z,-0.04
2023-01-17T18:29:07.247Z,-0.06
2023-01-17T18:31:34.326Z,-0.10
2023-01-17T18:34:06.747Z,-0.13
2023-01-17T18:36:34.825Z,-0.17
2023-01-17T18:39:02.565Z,-0.21
2023-01-17T18:41:31.414Z,-0.26
2023-01-17T18:43:58.047Z,-0.31
2023-01-17T18:46:26.221Z,-0.37
2023-01-17T18:48:56.027Z,-0.35
2023-01-17T18:51:22.912Z,-0.39
2023-01-17T18:53:49.835Z,-0.47
2023-01-17T18:56:19.424Z,-0.45
2023-01-17T18:58:48.305Z,-0.45
2023-01-17T19:01:18.018Z,-0.50
2023-01-17T19:03:47.015Z,-0.52
2023-01-17T19:06:17.227Z,-0.54
2023-01-17T19:08:45.104Z,-0.56
2023-01-17T19:11:12.314Z,-0.57
2023-01-17T19:13:40.576Z,-0.57
2023-01-17T19:16:09.167Z,-0.57
2023-01-17T19:18:35.923Z,-0.59
2023-01-17T19:21:18.703Z,-0.66
2023-01-17T19:23:45.414Z,-0.65
2023-01-17T19:26:13.857Z,-0.67
2023-01-17T19:28:42.817Z,-0.68
2023-01-17T19:31:12.698Z,-0.72
2023-01-17T19:33:42.171Z,-0.63
2023-01-17T19:36:11.718Z,-0.61
2023-01-17T19:38:38.454Z,-0.62
2023-01-17T19:41:09.002Z,-0.64
2023-01-17T19:43:35.899Z,-0.61
2023-01-17T19:46:02.738Z,-0.62
2023-01-17T19:48:29.582Z,-0.63
2023-01-17T19:50:56.148Z,-0.74
2023-01-17T19:53:23.407Z,-0.65
2023-01-17T19:55:50.155Z,-0.72
2023-01-17T19:58:16.682Z,-0.65
2023-01-17T20:00:46.627Z,-0.68
2023-01-17T20:03:13.499Z,-0.74
2023-01-17T20:05:40.009Z,-0.73
2023-01-17T20:08:06.587Z,-0.85
2023-01-17T20:10:33.114Z,-0.94
2023-01-17T20:12:59.652Z,-0.84
2023-01-17T20:15:26.624Z,-0.88
2023-01-17T20:17:53.356Z,-0.93
2023-01-17T20:20:22.417Z,-0.93
2023-01-17T20:22:49.122Z,-0.99
2023-01-17T20:25:15.731Z,-1.07
2023-01-17T20:27:42.815Z,-1.01
2023-01-17T20:30:19.618Z,-1.02
2023-01-17T20:32:46.930Z,-1.12
2023-01-17T20:35:13.585Z,-1.04
2023-01-17T20:37:40.094Z,-1.09
2023-01-17T20:40:07.215Z,-1.09
2023-01-17T20:42:36.274Z,-1.10
2023-01-17T20:45:02.813Z,-1.10
2023-01-17T20:47:29.727Z,-1.10
2023-01-17T20:49:57.530Z,-1.12
2023-01-17T20:52:24.048Z,-1.13
2023-01-17T20:54:51.732Z,-1.14
2023-01-17T20:57:18.284Z,-1.25
2023-01-17T20:59:45.729Z,-1.15
2023-01-17T21:02:12.561Z,-1.20
2023-01-17T21:04:39.233Z,-1.23
2023-01-17T21:07:05.822Z,-1.16
2023-01-17T21:09:32.331Z,-1.23
2023-01-17T21:12:02.144Z,-1.28
2023-01-17T21:14:29.051Z,-1.31
2023-01-17T21:16:55.652Z,-1.32
2023-01-17T21:19:22.913Z,-1.37
2023-01-17T21:21:50.178Z,-1.34
2023-01-17T21:24:18.839Z,-1.45
2023-01-17T21:26:46.768Z,-1.37
2023-01-17T21:29:16.036Z,-1.34
2023-01-17T21:31:42.860Z,-1.35
2023-01-17T21:34:11.120Z,-1.38
2023-01-17T21:36:40.047Z,-1.43
2023-01-17T21:39:12.053Z,-1.67
2023-01-17T21:41:40.971Z,-1.44
2023-01-17T21:44:12.615Z,-1.44
2023-01-17T21:46:40.738Z,-1.45
2023-01-17T21:49:12.220Z,-1.45
2023-01-17T21:51:52.717Z,-1.44
2023-01-17T21:54:46.226Z,-1.44
2023-01-17T21:57:36.144Z,-1.44
2023-01-17T22:00:07.873Z,-1.47
2023-01-17T22:02:34.440Z,-1.51
2023-01-17T22:05:00.906Z,-1.60
2023-01-17T22:07:29.005Z,-1.55
2023-01-17T22:09:56.904Z,-1.60
2023-01-17T22:12:23.503Z,-1.60
2023-01-17T22:14:50.067Z,-1.68
2023-01-17T22:17:16.583Z,-1.67
2023-01-17T22:19:43.090Z,-1.70
2023-01-17T22:22:09.577Z,-1.75
2023-01-17T22:24:36.131Z,-1.89
2023-01-17T22:27:02.717Z,-1.81
2023-01-17T22:29:29.597Z,-1.85
2023-01-17T22:31:56.144Z,-1.97
2023-01-17T22:34:22.877Z,-1.97
2023-01-17T22:36:49.507Z,-1.90
2023-01-17T22:39:16.050Z,-1.89
2023-01-17T22:41:42.687Z,-1.88
2023-01-17T22:44:09.232Z,-1.86
2023-01-17T22:46:40.457Z,-1.84
2023-01-17T22:49:08.470Z,-1.87
2023-01-17T22:51:35.510Z,-1.92
2023-01-17T22:54:02.086Z,-1.95
2023-01-17T22:56:31.768Z,-1.97
2023-01-17T22:59:01.921Z,-1.99
2023-01-17T23:01:30.831Z,-2.04
2023-01-17T23:04:00.114Z,-2.03
2023-01-17T23:06:33.600Z,-1.92
2023-01-17T23:11:42.927Z,-1.91
2023-01-17T23:14:13.678Z,-1.94
2023-01-17T23:17:05.113Z,-1.92
2023-01-17T23:19:35.255Z,-1.95
2023-01-17T23:22:15.972Z,-1.97
2023-01-17T23:24:58.732Z,-1.99
2023-01-17T23:27:51.190Z,-2.01
2023-01-17T23:30:20.686Z,-2.02
2023-01-17T23:32:49.994Z,-2.02
2023-01-17T23:35:17.914Z,-2.00
2023-01-17T23:38:03.558Z,-1.99
2023-01-17T23:40:34.900Z,-2.00
2023-01-17T23:43:20.243Z,-2.01
2023-01-17T23:45:46.896Z,-2.03
2023-01-17T23:48:13.528Z,-2.04
2023-01-17T23:50:42.312Z,-2.00
2023-01-17T23:53:09.357Z,-1.95
2023-01-17T23:55:41.015Z,-1.91
2023-01-17T23:58:09.787Z,-1.89
